^^
Grace C. Lehan Memorial Weather Station Historical Data
Daily Summary for June 2, 2022 Units:  English    Metric   Both
Daily Weekly Monthly Yearly
  High: Low: Average:
Temperature: 44.1 °F 28.9 °F 34.2 °F
Dew Point: 30.8 °F 23.3 °F 25.7 °F
Humidity: 80.5% 56.4% 71%
Wind Speed: 0.1mph 0mph 0mph
Wind Gust: 3mph - -
Wind- - SW
Pressure: 30.53 in 30.37 in -
Precipitation: 0.00 in    
 
 
Tabular Data for June 2, 2022
Time Temperature Dew Point Pressure Wind Wind Speed Wind Gust Humidity Rainfall Rate (Hourly) solar
00:04 33 °F 24.6 °F 30.37 in Calm     70.7% 0.00 in 0 W/m2
00:09 33 °F 24.6 °F 30.38 in Calm     71% 0.00 in 0 W/m2
00:14 32.9 °F 24.5 °F 30.38 in Calm     71% 0.00 in 0 W/m2
00:19 32.8 °F 24.5 °F 30.38 in Calm     71% 0.00 in 0 W/m2
00:24 32.8 °F 24.5 °F 30.38 in Calm     71% 0.00 in 0 W/m2
00:29 32.7 °F 24.3 °F 30.38 in Calm     71% 0.00 in 0 W/m2
00:34 32.6 °F 24.3 °F 30.38 in Calm     71% 0.00 in 0 W/m2
00:39 32.6 °F 24.4 °F 30.39 in Calm     71.5% 0.00 in 0 W/m2
00:44 32.4 °F 24.3 °F 30.39 in Calm     71.5% 0.00 in 0 W/m2
00:49 32.4 °F 24.4 °F 30.39 in Calm     72% 0.00 in 0 W/m2
00:54 32.3 °F 24.3 °F 30.39 in Calm     72% 0.00 in 0 W/m2
00:59 32.3 °F 24.3 °F 30.40 in Calm     72% 0.00 in 0 W/m2
01:04 32.3 °F 24.4 °F 30.40 in Calm     72.2% 0.00 in 0 W/m2
01:09 32.2 °F 24.5 °F 30.40 in Calm     73% 0.00 in 0 W/m2
01:14 32 °F 24.4 °F 30.40 in Calm     73% 0.00 in 0 W/m2
01:19 31.9 °F 24.3 °F 30.41 in Calm     73% 0.00 in 0 W/m2
01:24 31.9 °F 24.2 °F 30.41 in Calm     73% 0.00 in 0 W/m2
01:29 31.8 °F 24.2 °F 30.41 in Calm     73% 0.00 in 0 W/m2
01:34 31.7 °F 24.1 °F 30.41 in Calm     73% 0.00 in 0 W/m2
01:39 31.7 °F 24.3 °F 30.41 in West 0.1 mph 3 mph 73.9% 0.00 in 0 W/m2
01:44 31.6 °F 24.3 °F 30.41 in Calm   3 mph 74% 0.00 in 0 W/m2
01:49 31.6 °F 24.3 °F 30.42 in Calm   3 mph 74% 0.00 in 0 W/m2
01:54 31.5 °F 24.2 °F 30.42 in Calm   3 mph 74% 0.00 in 0 W/m2
01:59 31.5 °F 24.2 °F 30.42 in Calm   3 mph 74% 0.00 in 0 W/m2
02:04 31.4 °F 24.1 °F 30.42 in Calm   3 mph 74% 0.00 in 0 W/m2
02:09 31.4 °F 24.3 °F 30.42 in Calm     74.6% 0.00 in 0 W/m2
02:14 31.4 °F 24.4 °F 30.42 in Calm     75% 0.00 in 0 W/m2
02:19 31.3 °F 24.3 °F 30.42 in Calm     75% 0.00 in 0 W/m2
02:24 31.2 °F 24.2 °F 30.42 in Calm     75% 0.00 in 0 W/m2
02:29 31.1 °F 24.1 °F 30.42 in Calm     75% 0.00 in 0 W/m2
02:34 31.1 °F 24.1 °F 30.42 in Calm     75% 0.00 in 0 W/m2
02:39 31 °F 24 °F 30.41 in Calm     75% 0.00 in 0 W/m2
02:44 31 °F 24 °F 30.42 in Calm     75% 0.00 in 0 W/m2
02:49 30.9 °F 23.9 °F 30.42 in Calm     75% 0.00 in 0 W/m2
02:54 30.9 °F 24.1 °F 30.42 in Calm     75.4% 0.00 in 0 W/m2
02:59 30.9 °F 24.2 °F 30.42 in Calm     76% 0.00 in 0 W/m2
03:04 30.8 °F 24.1 °F 30.42 in Calm     76% 0.00 in 0 W/m2
03:09 30.7 °F 24.1 °F 30.42 in Calm     76% 0.00 in 0 W/m2
03:14 30.8 °F 24.1 °F 30.42 in Calm     76% 0.00 in 0 W/m2
03:19 30.8 °F 24.1 °F 30.43 in Calm     76% 0.00 in 0 W/m2
03:24 30.7 °F 24.1 °F 30.43 in Calm     76% 0.00 in 0 W/m2
03:29 30.7 °F 24 °F 30.43 in Calm     76% 0.00 in 0 W/m2
03:34 30.7 °F 24 °F 30.43 in Calm     76% 0.00 in 0 W/m2
03:39 30.7 °F 24.2 °F 30.44 in Calm     76.5% 0.00 in 0 W/m2
03:44 30.7 °F 24 °F 30.44 in Calm     76% 0.00 in 0 W/m2
03:49 30.6 °F 24 °F 30.44 in Calm     76% 0.00 in 0 W/m2
03:54 30.5 °F 24 °F 30.44 in Calm     76.5% 0.00 in 0 W/m2
03:58 30.4 °F 23.8 °F 30.44 in Calm     76% 0.00 in 0 W/m2
04:04 30.2 °F 23.9 °F 30.44 in Calm     77% 0.00 in 0 W/m2
04:09 30.1 °F 23.8 °F 30.44 in Calm     77% 0.00 in 0 W/m2
04:12 30.1 °F 23.8 °F 30.44 in Calm     77% 0.00 in 0 W/m2
04:19 30.1 °F 23.9 °F 30.44 in Calm     77.4% 0.00 in 0 W/m2
04:24 30.2 °F 24.2 °F 30.44 in Calm     78% 0.00 in 0 W/m2
04:29 30.3 °F 23.9 °F 30.44 in Calm     77% 0.00 in 0 W/m2
04:34 30.2 °F 23.9 °F 30.44 in Calm     77% 0.00 in 0 W/m2
04:39 30.1 °F 23.8 °F 30.45 in Calm     77% 0.00 in 0 W/m2
04:44 30 °F 23.7 °F 30.45 in Calm     77% 0.00 in 0 W/m2
04:49 29.9 °F 23.9 °F 30.45 in Calm     77.8% 0.00 in 0 W/m2
04:54 29.9 °F 23.9 °F 30.46 in Calm     78% 0.00 in 0 W/m2
04:59 29.8 °F 23.8 °F 30.46 in Calm     78% 0.00 in 0 W/m2
05:04 29.7 °F 23.7 °F 30.46 in Calm     78% 0.00 in 0 W/m2
05:09 29.6 °F 23.6 °F 30.46 in Calm     78% 0.00 in 0 W/m2
05:14 29.4 °F 23.5 °F 30.46 in Calm     78.4% 0.00 in 0 W/m2
05:19 29.3 °F 23.6 °F 30.47 in Calm     79% 0.00 in 0 W/m2
05:24 29.1 °F 23.4 °F 30.47 in Calm     79% 0.00 in 0 W/m2
05:29 29 °F 23.3 °F 30.47 in Calm     79% 0.00 in 0 W/m2
05:34 29 °F 23.5 °F 30.47 in Calm     79.6% 0.00 in 0 W/m2
05:39 28.9 °F 23.6 °F 30.48 in Calm     80% 0.00 in 0 W/m2
05:44 28.9 °F 23.6 °F 30.48 in Calm     80% 0.00 in 0 W/m2
05:49 29 °F 23.6 °F 30.48 in Calm     80% 0.00 in 0 W/m2
05:54 29 °F 23.6 °F 30.48 in Calm     80% 0.00 in 0 W/m2
05:59 29.1 °F 23.7 °F 30.48 in Calm     80% 0.00 in 0 W/m2
06:04 29.2 °F 23.8 °F 30.48 in Calm     80% 0.00 in 0 W/m2
06:09 29.3 °F 23.7 °F 30.49 in Calm     79.3% 0.00 in 0 W/m2
06:14 29.3 °F 23.6 °F 30.49 in Calm     79% 0.00 in 0 W/m2
06:19 29.3 °F 23.6 °F 30.50 in Calm     79% 0.00 in 0 W/m2
06:24 29.3 °F 23.6 °F 30.50 in Calm     79% 0.00 in 0 W/m2
06:29 29.3 °F 23.6 °F 30.50 in Calm     79% 0.00 in 0 W/m2
06:34 29.3 °F 23.6 °F 30.50 in Calm     79% 0.00 in 0 W/m2
06:39 29.3 °F 23.6 °F 30.50 in Calm     79% 0.00 in 0 W/m2
06:44 29.3 °F 23.6 °F 30.49 in Calm     79% 0.00 in 0 W/m2
06:49 29.4 °F 23.7 °F 30.49 in Calm     79% 0.00 in 0 W/m2
06:54 29.4 °F 23.7 °F 30.49 in Calm     79% 0.00 in 0 W/m2
06:59 29.5 °F 23.7 °F 30.50 in Calm     78.7% 0.00 in 0 W/m2
07:04 29.6 °F 23.8 °F 30.50 in Calm     78.7% 0.00 in 7 W/m2
07:09 29.6 °F 23.6 °F 30.50 in Calm     78% 0.00 in 9 W/m2
07:14 29.6 °F 23.6 °F 30.50 in Calm     78% 0.00 in 11 W/m2
07:19 29.7 °F 23.8 °F 30.51 in Calm     78.3% 0.00 in 14 W/m2
07:24 29.7 °F 24 °F 30.51 in Calm     79% 0.00 in 19 W/m2
07:29 29.6 °F 23.9 °F 30.50 in Calm     79% 0.00 in 30 W/m2
07:34 29.7 °F 24 °F 30.51 in Calm     79% 0.00 in 70 W/m2
07:39 30 °F 24.5 °F 30.51 in Calm     79.9% 0.00 in 81 W/m2
07:44 30.7 °F 25.4 °F 30.50 in Calm     80.5% 0.00 in 86 W/m2
07:49 31.7 °F 26 °F 30.50 in Calm     79.4% 0.00 in 97 W/m2
07:54 32.5 °F 26.4 °F 30.50 in Calm     77.8% 0.00 in 88 W/m2
07:59 33.2 °F 26.3 °F 30.50 in Calm     75.5% 0.00 in 123 W/m2
08:04 33.9 °F 26.5 °F 30.50 in Calm     74% 0.00 in 111 W/m2
08:09 34.2 °F 26.7 °F 30.51 in Calm     73.7% 0.00 in 149 W/m2
08:14 34.8 °F 26.9 °F 30.51 in Calm     72.6% 0.00 in 176 W/m2
08:19 35.3 °F 26.9 °F 30.51 in Calm     71.1% 0.00 in 200 W/m2
08:24 35.8 °F 27.4 °F 30.51 in Calm     71% 0.00 in 193 W/m2
08:29 36.6 °F 27.9 °F 30.51 in Calm     70.4% 0.00 in 176 W/m2
08:34 37.3 °F 28 °F 30.51 in Calm     68.7% 0.00 in 218 W/m2
08:39 38 °F 27.9 °F 30.51 in Calm     66.5% 0.00 in 232 W/m2
08:44 38.6 °F 28 °F 30.52 in Calm     65.2% 0.00 in 241 W/m2
08:49 39.2 °F 28.3 °F 30.52 in Calm     64.6% 0.00 in 241 W/m2
08:54 39.7 °F 28.1 °F 30.52 in Calm     62.9% 0.00 in 165 W/m2
08:59 39.6 °F 28 °F 30.53 in Calm     62.7% 0.00 in 165 W/m2
09:04 39.7 °F 28.2 °F 30.53 in Calm     63% 0.00 in 179 W/m2
09:09 39.9 °F 28.3 °F 30.53 in Calm     63% 0.00 in 188 W/m2
09:14 40.1 °F 28.3 °F 30.53 in Calm     62.5% 0.00 in 174 W/m2
09:19 40.3 °F 28.7 °F 30.52 in Calm     62.9% 0.00 in 202 W/m2
09:24 40.5 °F 28.8 °F 30.52 in Calm     62.8% 0.00 in 181 W/m2
09:29 40.6 °F 28.2 °F 30.52 in Calm     60.9% 0.00 in 113 W/m2
09:34 40.3 °F 27.9 °F 30.53 in Calm     60.9% 0.00 in 148 W/m2
09:39 40 °F 28.3 °F 30.53 in Calm     62.7% 0.00 in 148 W/m2
09:44 39.8 °F 27.9 °F 30.53 in Calm     62% 0.00 in 169 W/m2
09:49 39.5 °F 27.6 °F 30.53 in Calm     62% 0.00 in 93 W/m2
09:54 39.5 °F 28 °F 30.53 in Calm     63.2% 0.00 in 160 W/m2
09:59 39.6 °F 28.4 °F 30.53 in Calm     64% 0.00 in 209 W/m2
10:04 39.9 °F 28.7 °F 30.53 in Calm     64% 0.00 in 234 W/m2
10:09 40.4 °F 28.9 °F 30.53 in Calm     63.3% 0.00 in 313 W/m2
10:14 40.9 °F 29.3 °F 30.52 in Calm     63.1% 0.00 in 401 W/m2
10:19 41.5 °F 29 °F 30.52 in Calm     60.9% 0.00 in 439 W/m2
10:24 42.2 °F 29.8 °F 30.52 in Calm     61.3% 0.00 in 352 W/m2
10:29 42.8 °F 30 °F 30.52 in Calm     60.2% 0.00 in 165 W/m2
10:34 43.5 °F 30.8 °F 30.51 in Calm     60.5% 0.00 in 149 W/m2
10:39 44.1 °F 30.4 °F 30.51 in Calm     58.3% 0.00 in 309 W/m2
10:44 44.1 °F 30.2 °F 30.51 in Calm     57.8% 0.00 in 294 W/m2
10:49 43.8 °F 30.2 °F 30.51 in Calm     58.3% 0.00 in 179 W/m2
10:54 43.8 °F 30.4 °F 30.51 in Calm     58.8% 0.00 in 134 W/m2
10:59 43.9 °F 30.2 °F 30.50 in Calm     58.2% 0.00 in 183 W/m2
11:04 43.8 °F 29.6 °F 30.50 in Calm     57.1% 0.00 in 56 W/m2
11:09 43.4 °F 29.6 °F 30.50 in Calm     58% 0.00 in 56 W/m2
11:14 43.2 °F 29.7 °F 30.49 in Calm     58.5% 0.00 in 65 W/m2
11:19 43.1 °F 29.8 °F 30.49 in Calm     59% 0.00 in 163 W/m2
11:24 43.1 °F 29.4 °F 30.48 in Calm     58.2% 0.00 in 258 W/m2
11:29 43.1 °F 29.4 °F 30.48 in Calm     58.1% 0.00 in 220 W/m2
11:34 43.2 °F 30 °F 30.48 in Calm     59.5% 0.00 in 459 W/m2
11:39 43.2 °F 28.9 °F 30.48 in Calm     56.6% 0.00 in 459 W/m2
11:44 43 °F 28.6 °F 30.48 in Calm     56.4% 0.00 in 462 W/m2
11:49 42.7 °F 28.6 °F 30.47 in Calm     57.2% 0.00 in 462 W/m2
11:54 42.5 °F 28.6 °F 30.47 in Calm     57.5% 0.00 in 452 W/m2
11:59 42.5 °F 28.4 °F 30.47 in Calm     57% 0.00 in 490 W/m2
12:09 43.1 °F 28.9 °F 30.47 in Calm     57% 0.00 in 478 W/m2
12:14 43.5 °F 29.2 °F 30.47 in Calm   1 mph 56.8% 0.00 in 329 W/m2
12:17 43.7 °F 29.5 °F 30.47 in South 0.1 mph 1 mph 57% 0.00 in 199 W/m2
Hartford County Weather
Compliments of Weather Underground - 4 mb